sensor_id;sensor_type;location;lat;lon;timestamp;P1;durP1;ratioP1;P2;durP2;ratioP2
42124;SDS011;27787;44.594;11.046;2024-01-30T00:00:52;43.90;;;19.45;;
42124;SDS011;27787;44.594;11.046;2024-01-30T00:03:36;41.65;;;18.67;;
42124;SDS011;27787;44.594;11.046;2024-01-30T00:06:20;47.70;;;18.40;;
42124;SDS011;27787;44.594;11.046;2024-01-30T00:09:05;40.42;;;19.45;;
42124;SDS011;27787;44.594;11.046;2024-01-30T00:11:49;46.72;;;18.65;;
42124;SDS011;27787;44.594;11.046;2024-01-30T00:14:33;51.95;;;19.15;;
42124;SDS011;27787;44.594;11.046;2024-01-30T00:17:17;51.70;;;19.70;;
42124;SDS011;27787;44.594;11.046;2024-01-30T00:20:03;48.97;;;18.60;;
42124;SDS011;27787;44.594;11.046;2024-01-30T00:22:49;48.22;;;18.67;;
42124;SDS011;27787;44.594;11.046;2024-01-30T00:25:33;46.15;;;18.88;;
42124;SDS011;27787;44.594;11.046;2024-01-30T00:28:17;41.85;;;16.35;;
42124;SDS011;27787;44.594;11.046;2024-01-30T00:31:01;41.92;;;17.23;;
42124;SDS011;27787;44.594;11.046;2024-01-30T00:33:46;40.15;;;16.80;;
42124;SDS011;27787;44.594;11.046;2024-01-30T00:36:30;41.40;;;17.25;;
42124;SDS011;27787;44.594;11.046;2024-01-30T00:39:14;38.95;;;17.30;;
42124;SDS011;27787;44.594;11.046;2024-01-30T00:41:59;37.42;;;16.63;;
42124;SDS011;27787;44.594;11.046;2024-01-30T00:44:43;37.17;;;15.80;;
42124;SDS011;27787;44.594;11.046;2024-01-30T00:47:28;38.85;;;16.52;;
42124;SDS011;27787;44.594;11.046;2024-01-30T00:50:13;36.15;;;15.18;;
42124;SDS011;27787;44.594;11.046;2024-01-30T00:52:57;39.38;;;15.38;;
42124;SDS011;27787;44.594;11.046;2024-01-30T00:55:41;36.63;;;15.82;;
42124;SDS011;27787;44.594;11.046;2024-01-30T00:58:25;37.75;;;15.38;;
42124;SDS011;27787;44.594;11.046;2024-01-30T01:01:09;34.15;;;15.40;;
42124;SDS011;27787;44.594;11.046;2024-01-30T01:03:54;42.05;;;17.42;;
42124;SDS011;27787;44.594;11.046;2024-01-30T01:06:37;37.75;;;15.85;;
42124;SDS011;27787;44.594;11.046;2024-01-30T01:09:22;35.42;;;17.10;;
42124;SDS011;27787;44.594;11.046;2024-01-30T01:12:06;36.50;;;16.52;;
42124;SDS011;27787;44.594;11.046;2024-01-30T01:14:50;38.55;;;15.88;;
42124;SDS011;27787;44.594;11.046;2024-01-30T01:17:35;33.38;;;15.68;;
42124;SDS011;27787;44.594;11.046;2024-01-30T01:20:20;38.13;;;16.65;;
42124;SDS011;27787;44.594;11.046;2024-01-30T01:23:04;37.83;;;15.90;;
42124;SDS011;27787;44.594;11.046;2024-01-30T01:25:48;36.78;;;15.25;;
42124;SDS011;27787;44.594;11.046;2024-01-30T01:28:32;39.00;;;16.35;;
42124;SDS011;27787;44.594;11.046;2024-01-30T01:31:16;36.38;;;14.85;;
42124;SDS011;27787;44.594;11.046;2024-01-30T01:34:01;41.47;;;15.25;;
42124;SDS011;27787;44.594;11.046;2024-01-30T01:36:45;31.42;;;15.25;;
42124;SDS011;27787;44.594;11.046;2024-01-30T01:39:29;38.22;;;15.80;;
42124;SDS011;27787;44.594;11.046;2024-01-30T01:42:13;34.55;;;15.98;;
42124;SDS011;27787;44.594;11.046;2024-01-30T01:44:57;33.65;;;14.52;;
42124;SDS011;27787;44.594;11.046;2024-01-30T01:47:41;35.20;;;14.27;;
42124;SDS011;27787;44.594;11.046;2024-01-30T01:50:26;30.80;;;13.15;;
42124;SDS011;27787;44.594;11.046;2024-01-30T01:53:10;37.67;;;15.18;;
42124;SDS011;27787;44.594;11.046;2024-01-30T01:55:54;32.35;;;13.75;;
42124;SDS011;27787;44.594;11.046;2024-01-30T01:58:39;33.05;;;14.13;;
42124;SDS011;27787;44.594;11.046;2024-01-30T02:01:24;31.50;;;13.00;;
42124;SDS011;27787;44.594;11.046;2024-01-30T02:04:09;32.03;;;14.27;;
42124;SDS011;27787;44.594;11.046;2024-01-30T02:06:53;28.85;;;13.52;;
42124;SDS011;27787;44.594;11.046;2024-01-30T02:09:38;30.63;;;13.98;;
42124;SDS011;27787;44.594;11.046;2024-01-30T02:12:22;30.48;;;14.48;;
42124;SDS011;27787;44.594;11.046;2024-01-30T02:15:06;38.75;;;16.25;;
42124;SDS011;27787;44.594;11.046;2024-01-30T02:17:51;32.72;;;15.48;;
42124;SDS011;27787;44.594;11.046;2024-01-30T02:20:35;33.33;;;14.15;;
42124;SDS011;27787;44.594;11.046;2024-01-30T02:23:23;32.42;;;14.25;;
42124;SDS011;27787;44.594;11.046;2024-01-30T02:26:09;34.05;;;15.27;;
42124;SDS011;27787;44.594;11.046;2024-01-30T02:28:53;30.42;;;13.15;;
42124;SDS011;27787;44.594;11.046;2024-01-30T02:31:37;30.13;;;13.65;;
42124;SDS011;27787;44.594;11.046;2024-01-30T02:34:21;31.50;;;14.13;;
42124;SDS011;27787;44.594;11.046;2024-01-30T02:37:05;27.45;;;13.52;;
42124;SDS011;27787;44.594;11.046;2024-01-30T02:39:49;31.00;;;14.50;;
42124;SDS011;27787;44.594;11.046;2024-01-30T02:42:33;32.45;;;13.32;;
42124;SDS011;27787;44.594;11.046;2024-01-30T02:45:17;28.35;;;12.80;;
42124;SDS011;27787;44.594;11.046;2024-01-30T02:48:01;31.70;;;13.35;;
42124;SDS011;27787;44.594;11.046;2024-01-30T02:50:46;31.90;;;13.52;;
42124;SDS011;27787;44.594;11.046;2024-01-30T02:53:31;32.27;;;13.93;;
42124;SDS011;27787;44.594;11.046;2024-01-30T02:56:15;32.35;;;14.32;;
42124;SDS011;27787;44.594;11.046;2024-01-30T02:58:59;33.92;;;15.20;;
42124;SDS011;27787;44.594;11.046;2024-01-30T03:01:44;31.50;;;14.07;;
42124;SDS011;27787;44.594;11.046;2024-01-30T03:04:28;30.65;;;14.18;;
42124;SDS011;27787;44.594;11.046;2024-01-30T03:07:14;23.80;;;12.75;;
42124;SDS011;27787;44.594;11.046;2024-01-30T03:09:58;41.53;;;14.40;;
42124;SDS011;27787;44.594;11.046;2024-01-30T03:12:42;46.65;;;16.58;;
42124;SDS011;27787;44.594;11.046;2024-01-30T03:15:26;38.28;;;15.30;;
42124;SDS011;27787;44.594;11.046;2024-01-30T03:18:10;35.22;;;15.68;;
42124;SDS011;27787;44.594;11.046;2024-01-30T03:20:54;40.72;;;15.43;;
42124;SDS011;27787;44.594;11.046;2024-01-30T03:23:38;40.65;;;16.10;;
42124;SDS011;27787;44.594;11.046;2024-01-30T03:26:22;42.40;;;15.93;;
42124;SDS011;27787;44.594;11.046;2024-01-30T03:29:06;42.65;;;16.00;;
42124;SDS011;27787;44.594;11.046;2024-01-30T03:31:50;47.95;;;17.25;;
42124;SDS011;27787;44.594;11.046;2024-01-30T03:34:34;42.38;;;15.07;;
42124;SDS011;27787;44.594;11.046;2024-01-30T03:37:18;48.95;;;18.13;;
42124;SDS011;27787;44.594;11.046;2024-01-30T03:40:03;42.40;;;15.45;;
42124;SDS011;27787;44.594;11.046;2024-01-30T03:42:48;50.05;;;17.33;;
42124;SDS011;27787;44.594;11.046;2024-01-30T03:45:32;40.22;;;15.90;;
42124;SDS011;27787;44.594;11.046;2024-01-30T03:48:16;46.75;;;17.05;;
42124;SDS011;27787;44.594;11.046;2024-01-30T03:51:01;35.92;;;15.48;;
42124;SDS011;27787;44.594;11.046;2024-01-30T03:53:45;37.22;;;16.65;;
42124;SDS011;27787;44.594;11.046;2024-01-30T03:56:32;36.85;;;15.80;;
42124;SDS011;27787;44.594;11.046;2024-01-30T03:59:16;35.47;;;14.80;;
42124;SDS011;27787;44.594;11.046;2024-01-30T04:02:01;34.03;;;14.68;;
42124;SDS011;27787;44.594;11.046;2024-01-30T04:04:45;48.17;;;14.90;;
42124;SDS011;27787;44.594;11.046;2024-01-30T04:07:30;40.10;;;15.52;;
42124;SDS011;27787;44.594;11.046;2024-01-30T04:10:15;34.92;;;15.40;;
42124;SDS011;27787;44.594;11.046;2024-01-30T04:12:59;44.60;;;16.38;;
42124;SDS011;27787;44.594;11.046;2024-01-30T04:15:43;40.85;;;15.07;;
42124;SDS011;27787;44.594;11.046;2024-01-30T04:18:28;34.92;;;14.82;;
42124;SDS011;27787;44.594;11.046;2024-01-30T04:21:13;35.30;;;14.75;;
42124;SDS011;27787;44.594;11.046;2024-01-30T04:23:57;36.67;;;16.60;;
42124;SDS011;27787;44.594;11.046;2024-01-30T04:26:42;36.38;;;14.10;;
42124;SDS011;27787;44.594;11.046;2024-01-30T04:29:26;39.20;;;15.52;;
42124;SDS011;27787;44.594;11.046;2024-01-30T04:32:10;38.00;;;15.80;;
42124;SDS011;27787;44.594;11.046;2024-01-30T04:34:54;42.45;;;16.50;;
42124;SDS011;27787;44.594;11.046;2024-01-30T04:37:38;36.00;;;16.10;;
42124;SDS011;27787;44.594;11.046;2024-01-30T04:40:22;39.05;;;15.90;;
42124;SDS011;27787;44.594;11.046;2024-01-30T04:43:06;42.65;;;15.05;;
42124;SDS011;27787;44.594;11.046;2024-01-30T04:45:51;37.33;;;14.95;;
42124;SDS011;27787;44.594;11.046;2024-01-30T04:48:35;42.47;;;16.50;;
42124;SDS011;27787;44.594;11.046;2024-01-30T04:51:19;31.15;;;14.45;;
42124;SDS011;27787;44.594;11.046;2024-01-30T04:54:03;35.72;;;13.30;;
42124;SDS011;27787;44.594;11.046;2024-01-30T04:56:48;32.60;;;14.02;;
42124;SDS011;27787;44.594;11.046;2024-01-30T04:59:32;32.35;;;14.77;;
42124;SDS011;27787;44.594;11.046;2024-01-30T05:02:16;37.28;;;16.25;;
42124;SDS011;27787;44.594;11.046;2024-01-30T05:05:00;40.13;;;16.60;;
42124;SDS011;27787;44.594;11.046;2024-01-30T05:07:44;43.60;;;15.93;;
42124;SDS011;27787;44.594;11.046;2024-01-30T05:10:28;34.67;;;15.63;;
42124;SDS011;27787;44.594;11.046;2024-01-30T05:13:13;37.63;;;14.70;;
42124;SDS011;27787;44.594;11.046;2024-01-30T05:15:57;35.80;;;15.05;;
42124;SDS011;27787;44.594;11.046;2024-01-30T05:18:41;36.47;;;15.20;;
42124;SDS011;27787;44.594;11.046;2024-01-30T05:21:25;31.55;;;14.35;;
42124;SDS011;27787;44.594;11.046;2024-01-30T05:24:10;39.17;;;15.30;;
42124;SDS011;27787;44.594;11.046;2024-01-30T05:26:54;33.58;;;15.75;;
42124;SDS011;27787;44.594;11.046;2024-01-30T05:29:38;36.25;;;14.27;;
42124;SDS011;27787;44.594;11.046;2024-01-30T05:32:22;35.78;;;14.50;;
42124;SDS011;27787;44.594;11.046;2024-01-30T05:35:06;39.40;;;15.80;;
42124;SDS011;27787;44.594;11.046;2024-01-30T05:37:51;36.90;;;14.25;;
42124;SDS011;27787;44.594;11.046;2024-01-30T05:40:35;36.00;;;16.90;;
42124;SDS011;27787;44.594;11.046;2024-01-30T05:43:20;41.83;;;17.38;;
42124;SDS011;27787;44.594;11.046;2024-01-30T05:46:04;42.75;;;15.60;;
42124;SDS011;27787;44.594;11.046;2024-01-30T05:48:48;37.30;;;15.68;;
42124;SDS011;27787;44.594;11.046;2024-01-30T05:51:32;37.63;;;14.90;;
42124;SDS011;27787;44.594;11.046;2024-01-30T05:54:16;34.95;;;15.48;;
42124;SDS011;27787;44.594;11.046;2024-01-30T05:56:59;47.45;;;18.15;;
42124;SDS011;27787;44.594;11.046;2024-01-30T05:59:44;36.60;;;15.57;;
42124;SDS011;27787;44.594;11.046;2024-01-30T06:02:29;39.05;;;15.98;;
42124;SDS011;27787;44.594;11.046;2024-01-30T06:05:13;36.05;;;16.38;;
42124;SDS011;27787;44.594;11.046;2024-01-30T06:07:57;43.20;;;16.15;;
42124;SDS011;27787;44.594;11.046;2024-01-30T06:10:41;44.00;;;16.83;;
42124;SDS011;27787;44.594;11.046;2024-01-30T06:13:25;41.75;;;16.02;;
42124;SDS011;27787;44.594;11.046;2024-01-30T06:16:10;38.75;;;16.65;;
42124;SDS011;27787;44.594;11.046;2024-01-30T06:18:56;41.33;;;17.27;;
42124;SDS011;27787;44.594;11.046;2024-01-30T06:21:40;44.28;;;17.25;;
42124;SDS011;27787;44.594;11.046;2024-01-30T06:24:24;47.42;;;17.02;;
42124;SDS011;27787;44.594;11.046;2024-01-30T06:27:08;39.88;;;16.10;;
42124;SDS011;27787;44.594;11.046;2024-01-30T06:29:53;40.20;;;16.33;;
42124;SDS011;27787;44.594;11.046;2024-01-30T06:32:37;42.42;;;16.55;;
42124;SDS011;27787;44.594;11.046;2024-01-30T06:35:22;34.70;;;15.43;;
42124;SDS011;27787;44.594;11.046;2024-01-30T06:38:06;35.53;;;16.30;;
42124;SDS011;27787;44.594;11.046;2024-01-30T06:40:50;42.30;;;16.65;;
42124;SDS011;27787;44.594;11.046;2024-01-30T06:43:35;37.42;;;15.70;;
42124;SDS011;27787;44.594;11.046;2024-01-30T06:46:19;36.90;;;16.67;;
42124;SDS011;27787;44.594;11.046;2024-01-30T06:49:03;39.72;;;17.60;;
42124;SDS011;27787;44.594;11.046;2024-01-30T06:51:48;35.05;;;15.00;;
42124;SDS011;27787;44.594;11.046;2024-01-30T06:54:32;45.70;;;15.27;;
42124;SDS011;27787;44.594;11.046;2024-01-30T06:57:17;38.67;;;17.35;;
42124;SDS011;27787;44.594;11.046;2024-01-30T07:00:01;40.15;;;16.02;;
42124;SDS011;27787;44.594;11.046;2024-01-30T07:02:45;35.58;;;15.98;;
42124;SDS011;27787;44.594;11.046;2024-01-30T07:05:29;45.33;;;16.92;;
42124;SDS011;27787;44.594;11.046;2024-01-30T07:08:14;33.72;;;16.13;;
42124;SDS011;27787;44.594;11.046;2024-01-30T07:11:01;39.65;;;16.73;;
42124;SDS011;27787;44.594;11.046;2024-01-30T07:13:45;37.58;;;16.33;;
42124;SDS011;27787;44.594;11.046;2024-01-30T07:16:30;37.35;;;16.52;;
42124;SDS011;27787;44.594;11.046;2024-01-30T07:19:15;42.13;;;16.80;;
42124;SDS011;27787;44.594;11.046;2024-01-30T07:21:59;45.60;;;18.13;;
42124;SDS011;27787;44.594;11.046;2024-01-30T07:24:43;40.60;;;16.80;;
42124;SDS011;27787;44.594;11.046;2024-01-30T07:27:31;40.90;;;18.00;;
42124;SDS011;27787;44.594;11.046;2024-01-30T07:30:15;39.38;;;16.58;;
42124;SDS011;27787;44.594;11.046;2024-01-30T07:33:01;47.33;;;18.45;;
42124;SDS011;27787;44.594;11.046;2024-01-30T07:35:45;42.30;;;18.38;;
42124;SDS011;27787;44.594;11.046;2024-01-30T07:38:31;45.90;;;18.25;;
42124;SDS011;27787;44.594;11.046;2024-01-30T07:41:16;40.90;;;16.65;;
42124;SDS011;27787;44.594;11.046;2024-01-30T07:43:59;40.88;;;17.55;;
42124;SDS011;27787;44.594;11.046;2024-01-30T07:46:43;43.05;;;18.23;;
42124;SDS011;27787;44.594;11.046;2024-01-30T07:49:27;37.47;;;16.27;;
42124;SDS011;27787;44.594;11.046;2024-01-30T07:52:11;41.58;;;17.55;;
42124;SDS011;27787;44.594;11.046;2024-01-30T07:55:13;40.03;;;16.33;;
42124;SDS011;27787;44.594;11.046;2024-01-30T07:57:59;38.22;;;16.55;;
42124;SDS011;27787;44.594;11.046;2024-01-30T08:00:45;40.90;;;16.83;;
42124;SDS011;27787;44.594;11.046;2024-01-30T08:03:29;40.72;;;16.15;;
42124;SDS011;27787;44.594;11.046;2024-01-30T08:06:13;36.85;;;16.15;;
42124;SDS011;27787;44.594;11.046;2024-01-30T08:08:57;36.78;;;15.95;;
42124;SDS011;27787;44.594;11.046;2024-01-30T08:11:43;38.92;;;16.40;;
42124;SDS011;27787;44.594;11.046;2024-01-30T08:14:27;36.70;;;16.23;;
42124;SDS011;27787;44.594;11.046;2024-01-30T08:17:11;41.33;;;17.42;;
42124;SDS011;27787;44.594;11.046;2024-01-30T08:19:56;44.80;;;17.77;;
42124;SDS011;27787;44.594;11.046;2024-01-30T08:22:40;37.65;;;15.77;;
42124;SDS011;27787;44.594;11.046;2024-01-30T08:25:24;36.53;;;16.42;;
42124;SDS011;27787;44.594;11.046;2024-01-30T08:28:09;45.38;;;16.92;;
42124;SDS011;27787;44.594;11.046;2024-01-30T08:30:53;41.88;;;16.98;;
42124;SDS011;27787;44.594;11.046;2024-01-30T08:33:37;45.70;;;15.55;;
42124;SDS011;27787;44.594;11.046;2024-01-30T08:36:22;40.05;;;17.67;;
42124;SDS011;27787;44.594;11.046;2024-01-30T08:39:07;37.67;;;16.85;;
42124;SDS011;27787;44.594;11.046;2024-01-30T08:41:51;36.22;;;16.70;;
42124;SDS011;27787;44.594;11.046;2024-01-30T08:44:35;42.50;;;17.10;;
42124;SDS011;27787;44.594;11.046;2024-01-30T08:47:19;43.30;;;17.85;;
42124;SDS011;27787;44.594;11.046;2024-01-30T08:50:03;44.92;;;19.15;;
42124;SDS011;27787;44.594;11.046;2024-01-30T08:52:48;41.53;;;17.83;;
42124;SDS011;27787;44.594;11.046;2024-01-30T08:55:32;40.97;;;17.45;;
42124;SDS011;27787;44.594;11.046;2024-01-30T08:58:16;42.30;;;19.13;;
42124;SDS011;27787;44.594;11.046;2024-01-30T09:01:03;41.30;;;17.00;;
42124;SDS011;27787;44.594;11.046;2024-01-30T09:06:33;44.78;;;17.92;;
42124;SDS011;27787;44.594;11.046;2024-01-30T09:09:17;41.45;;;18.13;;
42124;SDS011;27787;44.594;11.046;2024-01-30T09:12:01;40.63;;;18.48;;
42124;SDS011;27787;44.594;11.046;2024-01-30T09:14:50;44.55;;;19.13;;
42124;SDS011;27787;44.594;11.046;2024-01-30T09:17:34;32.78;;;16.33;;
42124;SDS011;27787;44.594;11.046;2024-01-30T09:20:18;37.67;;;17.50;;
42124;SDS011;27787;44.594;11.046;2024-01-30T09:23:04;41.03;;;17.13;;
42124;SDS011;27787;44.594;11.046;2024-01-30T09:25:48;41.33;;;18.45;;
42124;SDS011;27787;44.594;11.046;2024-01-30T09:28:32;46.03;;;19.70;;
42124;SDS011;27787;44.594;11.046;2024-01-30T09:31:16;42.38;;;18.35;;
42124;SDS011;27787;44.594;11.046;2024-01-30T09:34:00;40.38;;;18.70;;
42124;SDS011;27787;44.594;11.046;2024-01-30T09:36:45;36.80;;;17.02;;
42124;SDS011;27787;44.594;11.046;2024-01-30T09:39:29;38.30;;;17.52;;
42124;SDS011;27787;44.594;11.046;2024-01-30T09:42:33;35.13;;;16.48;;
42124;SDS011;27787;44.594;11.046;2024-01-30T09:45:24;39.83;;;18.40;;
42124;SDS011;27787;44.594;11.046;2024-01-30T09:48:09;36.95;;;17.92;;
42124;SDS011;27787;44.594;11.046;2024-01-30T09:50:55;47.10;;;18.52;;
42124;SDS011;27787;44.594;11.046;2024-01-30T09:56:27;43.07;;;18.30;;
42124;SDS011;27787;44.594;11.046;2024-01-30T09:59:11;42.55;;;18.67;;
42124;SDS011;27787;44.594;11.046;2024-01-30T10:01:55;40.20;;;17.80;;
42124;SDS011;27787;44.594;11.046;2024-01-30T10:04:40;40.58;;;18.15;;
42124;SDS011;27787;44.594;11.046;2024-01-30T10:07:25;48.50;;;20.55;;
42124;SDS011;27787;44.594;11.046;2024-01-30T10:10:09;46.40;;;20.42;;
42124;SDS011;27787;44.594;11.046;2024-01-30T10:12:53;47.47;;;19.33;;
42124;SDS011;27787;44.594;11.046;2024-01-30T10:15:38;42.53;;;18.77;;
42124;SDS011;27787;44.594;11.046;2024-01-30T10:18:22;47.13;;;20.05;;
42124;SDS011;27787;44.594;11.046;2024-01-30T10:21:08;47.65;;;21.70;;
42124;SDS011;27787;44.594;11.046;2024-01-30T10:23:52;43.65;;;19.13;;
42124;SDS011;27787;44.594;11.046;2024-01-30T10:26:37;43.42;;;19.50;;
42124;SDS011;27787;44.594;11.046;2024-01-30T10:29:22;41.20;;;19.90;;
42124;SDS011;27787;44.594;11.046;2024-01-30T10:32:07;50.38;;;21.23;;
42124;SDS011;27787;44.594;11.046;2024-01-30T10:34:51;48.50;;;20.70;;
42124;SDS011;27787;44.594;11.046;2024-01-30T10:37:35;57.90;;;21.35;;
42124;SDS011;27787;44.594;11.046;2024-01-30T10:40:19;47.85;;;20.50;;
42124;SDS011;27787;44.594;11.046;2024-01-30T10:48:37;43.75;;;18.58;;
42124;SDS011;27787;44.594;11.046;2024-01-30T10:51:28;46.75;;;20.92;;
42124;SDS011;27787;44.594;11.046;2024-01-30T10:54:12;48.45;;;20.75;;
42124;SDS011;27787;44.594;11.046;2024-01-30T10:56:57;47.50;;;21.67;;
42124;SDS011;27787;44.594;11.046;2024-01-30T10:59:43;45.75;;;19.95;;
42124;SDS011;27787;44.594;11.046;2024-01-30T11:02:29;43.05;;;20.33;;
42124;SDS011;27787;44.594;11.046;2024-01-30T11:05:14;42.72;;;20.58;;
42124;SDS011;27787;44.594;11.046;2024-01-30T11:08:13;45.60;;;20.25;;
42124;SDS011;27787;44.594;11.046;2024-01-30T11:10:58;52.60;;;20.63;;
42124;SDS011;27787;44.594;11.046;2024-01-30T11:13:43;48.00;;;21.58;;
42124;SDS011;27787;44.594;11.046;2024-01-30T11:16:30;53.38;;;21.75;;
42124;SDS011;27787;44.594;11.046;2024-01-30T11:19:21;49.75;;;21.17;;
42124;SDS011;27787;44.594;11.046;2024-01-30T11:22:06;51.00;;;20.30;;
42124;SDS011;27787;44.594;11.046;2024-01-30T11:24:51;47.60;;;19.88;;
42124;SDS011;27787;44.594;11.046;2024-01-30T11:27:35;45.03;;;20.25;;
42124;SDS011;27787;44.594;11.046;2024-01-30T11:33:09;45.30;;;19.55;;
42124;SDS011;27787;44.594;11.046;2024-01-30T11:35:56;44.13;;;19.98;;
42124;SDS011;27787;44.594;11.046;2024-01-30T11:38:41;42.55;;;19.83;;
42124;SDS011;27787;44.594;11.046;2024-01-30T11:41:27;44.83;;;19.20;;
42124;SDS011;27787;44.594;11.046;2024-01-30T11:44:12;46.80;;;19.02;;
42124;SDS011;27787;44.594;11.046;2024-01-30T11:46:56;40.28;;;17.75;;
42124;SDS011;27787;44.594;11.046;2024-01-30T11:49:40;40.97;;;19.20;;
42124;SDS011;27787;44.594;11.046;2024-01-30T11:52:24;40.85;;;18.33;;
42124;SDS011;27787;44.594;11.046;2024-01-30T11:55:09;40.88;;;19.02;;
42124;SDS011;27787;44.594;11.046;2024-01-30T11:57:57;39.35;;;18.23;;
42124;SDS011;27787;44.594;11.046;2024-01-30T12:00:42;38.05;;;18.13;;
42124;SDS011;27787;44.594;11.046;2024-01-30T12:03:27;35.85;;;17.70;;
42124;SDS011;27787;44.594;11.046;2024-01-30T12:06:11;43.45;;;19.75;;
42124;SDS011;27787;44.594;11.046;2024-01-30T12:08:58;41.67;;;18.35;;
42124;SDS011;27787;44.594;11.046;2024-01-30T12:11:44;37.53;;;18.15;;
42124;SDS011;27787;44.594;11.046;2024-01-30T12:14:29;36.08;;;17.58;;
42124;SDS011;27787;44.594;11.046;2024-01-30T12:17:24;40.13;;;18.17;;
42124;SDS011;27787;44.594;11.046;2024-01-30T12:20:13;39.08;;;17.05;;
42124;SDS011;27787;44.594;11.046;2024-01-30T12:25:56;37.65;;;16.10;;
42124;SDS011;27787;44.594;11.046;2024-01-30T12:28:47;37.35;;;17.10;;
42124;SDS011;27787;44.594;11.046;2024-01-30T12:31:34;34.53;;;16.10;;
42124;SDS011;27787;44.594;11.046;2024-01-30T12:34:18;35.25;;;16.90;;
42124;SDS011;27787;44.594;11.046;2024-01-30T12:39:53;33.87;;;15.63;;
42124;SDS011;27787;44.594;11.046;2024-01-30T12:42:38;33.55;;;14.85;;
42124;SDS011;27787;44.594;11.046;2024-01-30T12:45:22;34.72;;;14.68;;
42124;SDS011;27787;44.594;11.046;2024-01-30T12:48:06;34.50;;;15.18;;
42124;SDS011;27787;44.594;11.046;2024-01-30T12:50:50;46.90;;;14.75;;
42124;SDS011;27787;44.594;11.046;2024-01-30T12:53:34;29.42;;;13.93;;
42124;SDS011;27787;44.594;11.046;2024-01-30T12:56:18;32.35;;;14.43;;
42124;SDS011;27787;44.594;11.046;2024-01-30T12:59:02;34.15;;;15.55;;
42124;SDS011;27787;44.594;11.046;2024-01-30T13:01:46;34.55;;;15.18;;
42124;SDS011;27787;44.594;11.046;2024-01-30T13:04:31;37.10;;;14.88;;
42124;SDS011;27787;44.594;11.046;2024-01-30T13:07:15;37.22;;;14.07;;
42124;SDS011;27787;44.594;11.046;2024-01-30T13:10:00;33.55;;;14.68;;
42124;SDS011;27787;44.594;11.046;2024-01-30T13:12:47;41.90;;;16.10;;
42124;SDS011;27787;44.594;11.046;2024-01-30T13:15:31;33.70;;;15.38;;
42124;SDS011;27787;44.594;11.046;2024-01-30T13:18:15;38.38;;;16.20;;
42124;SDS011;27787;44.594;11.046;2024-01-30T13:20:59;36.05;;;15.35;;
42124;SDS011;27787;44.594;11.046;2024-01-30T13:23:43;34.85;;;15.90;;
42124;SDS011;27787;44.594;11.046;2024-01-30T13:26:28;37.55;;;15.40;;
42124;SDS011;27787;44.594;11.046;2024-01-30T13:29:12;35.78;;;14.40;;
42124;SDS011;27787;44.594;11.046;2024-01-30T13:31:56;35.45;;;14.60;;
42124;SDS011;27787;44.594;11.046;2024-01-30T13:34:40;36.85;;;15.43;;
42124;SDS011;27787;44.594;11.046;2024-01-30T13:37:24;41.83;;;16.33;;
42124;SDS011;27787;44.594;11.046;2024-01-30T13:40:08;35.78;;;15.98;;
42124;SDS011;27787;44.594;11.046;2024-01-30T13:42:53;35.50;;;15.75;;
42124;SDS011;27787;44.594;11.046;2024-01-30T13:45:37;37.28;;;14.50;;
42124;SDS011;27787;44.594;11.046;2024-01-30T13:48:21;39.60;;;16.40;;
42124;SDS011;27787;44.594;11.046;2024-01-30T13:51:05;40.50;;;15.95;;
42124;SDS011;27787;44.594;11.046;2024-01-30T13:53:50;45.40;;;16.08;;
42124;SDS011;27787;44.594;11.046;2024-01-30T13:56:34;41.75;;;17.17;;
42124;SDS011;27787;44.594;11.046;2024-01-30T13:59:18;36.58;;;16.20;;
42124;SDS011;27787;44.594;11.046;2024-01-30T14:02:07;36.92;;;15.18;;
42124;SDS011;27787;44.594;11.046;2024-01-30T14:04:54;41.83;;;17.15;;
42124;SDS011;27787;44.594;11.046;2024-01-30T14:07:38;34.58;;;16.30;;
42124;SDS011;27787;44.594;11.046;2024-01-30T14:10:23;37.50;;;15.63;;
42124;SDS011;27787;44.594;11.046;2024-01-30T14:13:07;37.10;;;16.23;;
42124;SDS011;27787;44.594;11.046;2024-01-30T14:15:51;38.10;;;16.45;;
42124;SDS011;27787;44.594;11.046;2024-01-30T14:18:36;35.45;;;16.13;;
42124;SDS011;27787;44.594;11.046;2024-01-30T14:21:21;41.63;;;16.92;;
42124;SDS011;27787;44.594;11.046;2024-01-30T14:24:05;42.67;;;15.98;;
42124;SDS011;27787;44.594;11.046;2024-01-30T14:26:49;39.53;;;16.30;;
42124;SDS011;27787;44.594;11.046;2024-01-30T14:29:34;36.45;;;16.15;;
42124;SDS011;27787;44.594;11.046;2024-01-30T14:32:18;42.10;;;16.92;;
42124;SDS011;27787;44.594;11.046;2024-01-30T14:35:02;38.15;;;17.00;;
42124;SDS011;27787;44.594;11.046;2024-01-30T14:37:46;41.08;;;17.52;;
42124;SDS011;27787;44.594;11.046;2024-01-30T14:40:31;39.83;;;17.25;;
42124;SDS011;27787;44.594;11.046;2024-01-30T14:43:15;43.60;;;16.48;;
42124;SDS011;27787;44.594;11.046;2024-01-30T14:45:59;38.65;;;16.85;;
42124;SDS011;27787;44.594;11.046;2024-01-30T14:48:42;39.28;;;16.27;;
42124;SDS011;27787;44.594;11.046;2024-01-30T14:51:27;32.47;;;15.38;;
42124;SDS011;27787;44.594;11.046;2024-01-30T14:54:13;42.72;;;17.48;;
42124;SDS011;27787;44.594;11.046;2024-01-30T14:56:57;35.17;;;17.02;;
42124;SDS011;27787;44.594;11.046;2024-01-30T14:59:43;40.05;;;17.88;;
42124;SDS011;27787;44.594;11.046;2024-01-30T15:02:27;42.78;;;17.20;;
42124;SDS011;27787;44.594;11.046;2024-01-30T15:05:12;37.25;;;17.27;;
42124;SDS011;27787;44.594;11.046;2024-01-30T15:07:56;36.30;;;16.48;;
42124;SDS011;27787;44.594;11.046;2024-01-30T15:10:40;33.92;;;17.33;;
42124;SDS011;27787;44.594;11.046;2024-01-30T15:13:24;37.75;;;16.58;;
42124;SDS011;27787;44.594;11.046;2024-01-30T15:16:08;45.30;;;17.38;;
42124;SDS011;27787;44.594;11.046;2024-01-30T15:18:53;38.17;;;18.35;;
42124;SDS011;27787;44.594;11.046;2024-01-30T15:21:37;36.88;;;16.63;;
42124;SDS011;27787;44.594;11.046;2024-01-30T15:24:21;35.88;;;17.08;;
42124;SDS011;27787;44.594;11.046;2024-01-30T15:27:08;36.47;;;17.35;;
42124;SDS011;27787;44.594;11.046;2024-01-30T15:29:52;38.90;;;17.40;;
42124;SDS011;27787;44.594;11.046;2024-01-30T15:32:36;40.80;;;17.90;;
42124;SDS011;27787;44.594;11.046;2024-01-30T15:35:20;35.80;;;17.33;;
42124;SDS011;27787;44.594;11.046;2024-01-30T15:38:05;38.00;;;18.10;;
42124;SDS011;27787;44.594;11.046;2024-01-30T15:40:53;35.60;;;17.10;;
42124;SDS011;27787;44.594;11.046;2024-01-30T15:43:37;40.40;;;17.05;;
42124;SDS011;27787;44.594;11.046;2024-01-30T15:46:21;34.22;;;17.00;;
42124;SDS011;27787;44.594;11.046;2024-01-30T15:49:05;34.88;;;16.70;;
42124;SDS011;27787;44.594;11.046;2024-01-30T15:51:50;37.38;;;19.35;;
42124;SDS011;27787;44.594;11.046;2024-01-30T15:54:35;37.78;;;18.83;;
42124;SDS011;27787;44.594;11.046;2024-01-30T15:57:19;44.20;;;20.02;;
42124;SDS011;27787;44.594;11.046;2024-01-30T16:00:03;47.30;;;21.55;;
42124;SDS011;27787;44.594;11.046;2024-01-30T16:02:55;40.10;;;19.40;;
42124;SDS011;27787;44.594;11.046;2024-01-30T16:08:25;42.50;;;19.65;;
42124;SDS011;27787;44.594;11.046;2024-01-30T16:11:10;46.70;;;21.63;;